sensor_id;sensor_type;location;lat;lon;timestamp;P1;durP1;ratioP1;P2;durP2;ratioP2
19643;SDS011;9970;-36.854;174.870;2023-11-21T00:00:19;1.33;;;0.80;;
19643;SDS011;9970;-36.854;174.870;2023-11-21T00:02:54;0.73;;;0.73;;
19643;SDS011;9970;-36.854;174.870;2023-11-21T00:05:26;1.00;;;1.00;;
19643;SDS011;9970;-36.854;174.870;2023-11-21T00:07:59;1.10;;;1.10;;
19643;SDS011;9970;-36.854;174.870;2023-11-21T00:10:33;0.90;;;0.90;;
19643;SDS011;9970;-36.854;174.870;2023-11-21T00:13:07;0.70;;;0.70;;
19643;SDS011;9970;-36.854;174.870;2023-11-21T00:15:41;0.90;;;0.90;;
19643;SDS011;9970;-36.854;174.870;2023-11-21T00:18:14;0.70;;;0.70;;
19643;SDS011;9970;-36.854;174.870;2023-11-21T00:20:47;0.80;;;0.80;;
19643;SDS011;9970;-36.854;174.870;2023-11-21T00:23:20;1.10;;;1.10;;
19643;SDS011;9970;-36.854;174.870;2023-11-21T00:25:53;3.63;;;1.00;;
19643;SDS011;9970;-36.854;174.870;2023-11-21T00:28:26;0.97;;;0.93;;
19643;SDS011;9970;-36.854;174.870;2023-11-21T00:30:59;1.00;;;1.00;;
19643;SDS011;9970;-36.854;174.870;2023-11-21T00:33:34;0.80;;;0.80;;
19643;SDS011;9970;-36.854;174.870;2023-11-21T00:36:07;1.43;;;0.80;;
19643;SDS011;9970;-36.854;174.870;2023-11-21T00:38:41;0.70;;;0.70;;
19643;SDS011;9970;-36.854;174.870;2023-11-21T00:41:13;1.00;;;1.00;;
19643;SDS011;9970;-36.854;174.870;2023-11-21T00:43:46;11.30;;;1.10;;
19643;SDS011;9970;-36.854;174.870;2023-11-21T00:46:19;0.90;;;0.90;;
19643;SDS011;9970;-36.854;174.870;2023-11-21T00:48:53;1.70;;;1.50;;
19643;SDS011;9970;-36.854;174.870;2023-11-21T00:51:27;5.60;;;1.70;;
19643;SDS011;9970;-36.854;174.870;2023-11-21T00:54:00;10.63;;;2.00;;
19643;SDS011;9970;-36.854;174.870;2023-11-21T00:56:33;3.17;;;1.70;;
19643;SDS011;9970;-36.854;174.870;2023-11-21T00:59:06;2.00;;;1.77;;
19643;SDS011;9970;-36.854;174.870;2023-11-21T01:01:40;2.63;;;2.27;;
19643;SDS011;9970;-36.854;174.870;2023-11-21T01:04:14;7.87;;;2.67;;
19643;SDS011;9970;-36.854;174.870;2023-11-21T01:06:47;4.97;;;2.07;;
19643;SDS011;9970;-36.854;174.870;2023-11-21T01:09:20;4.00;;;1.90;;
19643;SDS011;9970;-36.854;174.870;2023-11-21T01:11:53;1.97;;;1.70;;
19643;SDS011;9970;-36.854;174.870;2023-11-21T01:14:26;6.23;;;2.33;;
19643;SDS011;9970;-36.854;174.870;2023-11-21T01:16:59;6.60;;;2.70;;
19643;SDS011;9970;-36.854;174.870;2023-11-21T01:19:41;2.33;;;1.90;;
19643;SDS011;9970;-36.854;174.870;2023-11-21T01:22:38;9.13;;;2.13;;
19643;SDS011;9970;-36.854;174.870;2023-11-21T01:25:13;3.70;;;2.67;;
19643;SDS011;9970;-36.854;174.870;2023-11-21T01:27:46;4.30;;;2.20;;
19643;SDS011;9970;-36.854;174.870;2023-11-21T01:30:20;4.10;;;1.73;;
19643;SDS011;9970;-36.854;174.870;2023-11-21T01:32:53;4.30;;;1.80;;
19643;SDS011;9970;-36.854;174.870;2023-11-21T01:35:31;5.00;;;2.57;;
19643;SDS011;9970;-36.854;174.870;2023-11-21T01:38:00;3.60;;;2.27;;
19643;SDS011;9970;-36.854;174.870;2023-11-21T01:40:33;4.60;;;2.20;;
19643;SDS011;9970;-36.854;174.870;2023-11-21T01:43:06;2.33;;;2.13;;
19643;SDS011;9970;-36.854;174.870;2023-11-21T01:45:39;7.57;;;3.60;;
19643;SDS011;9970;-36.854;174.870;2023-11-21T01:48:12;2.90;;;1.83;;
19643;SDS011;9970;-36.854;174.870;2023-11-21T01:50:46;3.10;;;2.17;;
19643;SDS011;9970;-36.854;174.870;2023-11-21T01:53:23;5.90;;;2.23;;
19643;SDS011;9970;-36.854;174.870;2023-11-21T01:55:56;3.90;;;1.80;;
19643;SDS011;9970;-36.854;174.870;2023-11-21T01:58:30;4.27;;;1.90;;
19643;SDS011;9970;-36.854;174.870;2023-11-21T02:01:03;8.07;;;1.83;;
19643;SDS011;9970;-36.854;174.870;2023-11-21T02:03:36;2.93;;;1.80;;
19643;SDS011;9970;-36.854;174.870;2023-11-21T02:06:09;3.30;;;1.50;;
19643;SDS011;9970;-36.854;174.870;2023-11-21T02:08:42;10.47;;;1.93;;
19643;SDS011;9970;-36.854;174.870;2023-11-21T02:11:15;5.07;;;1.40;;
19643;SDS011;9970;-36.854;174.870;2023-11-21T02:13:48;3.53;;;1.60;;
19643;SDS011;9970;-36.854;174.870;2023-11-21T02:16:25;5.03;;;1.77;;
19643;SDS011;9970;-36.854;174.870;2023-11-21T02:18:59;2.03;;;1.33;;
19643;SDS011;9970;-36.854;174.870;2023-11-21T02:21:33;2.63;;;1.60;;
19643;SDS011;9970;-36.854;174.870;2023-11-21T02:24:08;2.33;;;1.50;;
19643;SDS011;9970;-36.854;174.870;2023-11-21T02:26:41;4.20;;;1.63;;
19643;SDS011;9970;-36.854;174.870;2023-11-21T02:29:15;4.23;;;1.53;;
19643;SDS011;9970;-36.854;174.870;2023-11-21T02:31:51;3.10;;;1.57;;
19643;SDS011;9970;-36.854;174.870;2023-11-21T02:34:24;4.73;;;2.00;;
19643;SDS011;9970;-36.854;174.870;2023-11-21T02:36:58;4.27;;;2.30;;
19643;SDS011;9970;-36.854;174.870;2023-11-21T02:39:31;3.77;;;1.90;;
19643;SDS011;9970;-36.854;174.870;2023-11-21T02:42:04;6.07;;;2.40;;
19643;SDS011;9970;-36.854;174.870;2023-11-21T02:44:37;1.47;;;1.37;;
19643;SDS011;9970;-36.854;174.870;2023-11-21T02:47:10;2.27;;;1.87;;
19643;SDS011;9970;-36.854;174.870;2023-11-21T02:49:43;7.53;;;1.80;;
19643;SDS011;9970;-36.854;174.870;2023-11-21T02:52:16;4.67;;;1.67;;
19643;SDS011;9970;-36.854;174.870;2023-11-21T02:54:49;1.57;;;1.10;;
19643;SDS011;9970;-36.854;174.870;2023-11-21T02:57:23;4.90;;;1.30;;
19643;SDS011;9970;-36.854;174.870;2023-11-21T02:59:56;5.77;;;1.87;;
19643;SDS011;9970;-36.854;174.870;2023-11-21T03:02:29;4.93;;;1.20;;
19643;SDS011;9970;-36.854;174.870;2023-11-21T03:05:06;3.50;;;1.10;;
19643;SDS011;9970;-36.854;174.870;2023-11-21T03:07:39;4.53;;;1.87;;
19643;SDS011;9970;-36.854;174.870;2023-11-21T03:10:12;9.83;;;1.37;;
19643;SDS011;9970;-36.854;174.870;2023-11-21T03:12:45;3.23;;;1.43;;
19643;SDS011;9970;-36.854;174.870;2023-11-21T03:15:18;3.77;;;1.73;;
19643;SDS011;9970;-36.854;174.870;2023-11-21T03:17:51;4.50;;;1.50;;
19643;SDS011;9970;-36.854;174.870;2023-11-21T03:20:24;2.57;;;1.47;;
19643;SDS011;9970;-36.854;174.870;2023-11-21T03:23:01;3.33;;;1.40;;
19643;SDS011;9970;-36.854;174.870;2023-11-21T03:25:34;2.17;;;1.10;;
19643;SDS011;9970;-36.854;174.870;2023-11-21T03:28:07;0.93;;;0.80;;
19643;SDS011;9970;-36.854;174.870;2023-11-21T03:30:44;2.20;;;1.40;;
19643;SDS011;9970;-36.854;174.870;2023-11-21T03:33:17;1.53;;;1.40;;
19643;SDS011;9970;-36.854;174.870;2023-11-21T03:35:50;3.87;;;1.83;;
19643;SDS011;9970;-36.854;174.870;2023-11-21T03:38:23;9.93;;;1.70;;
19643;SDS011;9970;-36.854;174.870;2023-11-21T03:40:57;2.57;;;1.10;;
19643;SDS011;9970;-36.854;174.870;2023-11-21T03:43:30;6.53;;;1.30;;
19643;SDS011;9970;-36.854;174.870;2023-11-21T03:46:03;1.20;;;1.13;;
19643;SDS011;9970;-36.854;174.870;2023-11-21T03:48:37;4.70;;;1.43;;
19643;SDS011;9970;-36.854;174.870;2023-11-21T03:51:10;2.73;;;1.43;;
19643;SDS011;9970;-36.854;174.870;2023-11-21T03:53:42;1.73;;;1.30;;
19643;SDS011;9970;-36.854;174.870;2023-11-21T03:56:15;1.73;;;1.17;;
19643;SDS011;9970;-36.854;174.870;2023-11-21T03:58:48;2.73;;;1.30;;
19643;SDS011;9970;-36.854;174.870;2023-11-21T04:01:21;6.57;;;1.60;;
19643;SDS011;9970;-36.854;174.870;2023-11-21T04:03:55;5.37;;;1.33;;
19643;SDS011;9970;-36.854;174.870;2023-11-21T04:06:31;1.30;;;0.90;;
19643;SDS011;9970;-36.854;174.870;2023-11-21T04:09:05;5.60;;;1.40;;
19643;SDS011;9970;-36.854;174.870;2023-11-21T04:11:39;2.20;;;1.70;;
19643;SDS011;9970;-36.854;174.870;2023-11-21T04:14:12;4.50;;;2.10;;
19643;SDS011;9970;-36.854;174.870;2023-11-21T04:16:46;3.50;;;1.10;;
19643;SDS011;9970;-36.854;174.870;2023-11-21T04:19:20;1.27;;;1.10;;
19643;SDS011;9970;-36.854;174.870;2023-11-21T04:21:53;3.17;;;1.43;;
19643;SDS011;9970;-36.854;174.870;2023-11-21T04:24:26;1.70;;;1.20;;
19643;SDS011;9970;-36.854;174.870;2023-11-21T04:26:58;5.63;;;1.60;;
19643;SDS011;9970;-36.854;174.870;2023-11-21T04:29:32;1.40;;;1.13;;
19643;SDS011;9970;-36.854;174.870;2023-11-21T04:32:05;1.83;;;1.73;;
19643;SDS011;9970;-36.854;174.870;2023-11-21T04:34:38;2.40;;;1.63;;
19643;SDS011;9970;-36.854;174.870;2023-11-21T04:37:11;5.87;;;1.33;;
19643;SDS011;9970;-36.854;174.870;2023-11-21T04:39:44;4.10;;;1.27;;
19643;SDS011;9970;-36.854;174.870;2023-11-21T04:42:17;1.83;;;1.10;;
19643;SDS011;9970;-36.854;174.870;2023-11-21T04:44:50;4.00;;;1.37;;
19643;SDS011;9970;-36.854;174.870;2023-11-21T04:47:22;2.03;;;1.17;;
19643;SDS011;9970;-36.854;174.870;2023-11-21T04:49:55;3.37;;;1.07;;
19643;SDS011;9970;-36.854;174.870;2023-11-21T04:52:28;2.30;;;1.50;;
19643;SDS011;9970;-36.854;174.870;2023-11-21T04:55:03;1.43;;;0.97;;
19643;SDS011;9970;-36.854;174.870;2023-11-21T04:57:37;5.37;;;1.50;;
19643;SDS011;9970;-36.854;174.870;2023-11-21T05:00:14;2.53;;;1.20;;
19643;SDS011;9970;-36.854;174.870;2023-11-21T05:02:47;5.27;;;1.30;;
19643;SDS011;9970;-36.854;174.870;2023-11-21T05:05:20;4.87;;;1.43;;
19643;SDS011;9970;-36.854;174.870;2023-11-21T05:07:53;3.10;;;1.43;;
19643;SDS011;9970;-36.854;174.870;2023-11-21T05:10:26;4.13;;;1.60;;
19643;SDS011;9970;-36.854;174.870;2023-11-21T05:13:00;5.73;;;1.63;;
19643;SDS011;9970;-36.854;174.870;2023-11-21T05:15:33;5.80;;;2.00;;
19643;SDS011;9970;-36.854;174.870;2023-11-21T05:18:06;1.70;;;1.60;;
19643;SDS011;9970;-36.854;174.870;2023-11-21T05:20:39;1.77;;;1.53;;
19643;SDS011;9970;-36.854;174.870;2023-11-21T05:23:12;2.10;;;1.30;;
19643;SDS011;9970;-36.854;174.870;2023-11-21T05:25:45;6.60;;;1.73;;
19643;SDS011;9970;-36.854;174.870;2023-11-21T05:28:18;2.73;;;1.40;;
19643;SDS011;9970;-36.854;174.870;2023-11-21T05:30:51;1.90;;;1.60;;
19643;SDS011;9970;-36.854;174.870;2023-11-21T05:33:25;2.00;;;1.40;;
19643;SDS011;9970;-36.854;174.870;2023-11-21T05:35:58;2.40;;;1.20;;
19643;SDS011;9970;-36.854;174.870;2023-11-21T05:38:31;3.33;;;1.30;;
19643;SDS011;9970;-36.854;174.870;2023-11-21T05:41:05;1.90;;;1.57;;
19643;SDS011;9970;-36.854;174.870;2023-11-21T05:43:38;4.30;;;1.90;;
19643;SDS011;9970;-36.854;174.870;2023-11-21T05:46:11;2.73;;;1.20;;
19643;SDS011;9970;-36.854;174.870;2023-11-21T05:48:44;6.37;;;1.57;;
19643;SDS011;9970;-36.854;174.870;2023-11-21T05:51:17;1.30;;;1.20;;
19643;SDS011;9970;-36.854;174.870;2023-11-21T05:53:50;2.87;;;1.37;;
19643;SDS011;9970;-36.854;174.870;2023-11-21T05:56:26;2.00;;;1.43;;
19643;SDS011;9970;-36.854;174.870;2023-11-21T05:59:03;2.10;;;1.70;;
19643;SDS011;9970;-36.854;174.870;2023-11-21T06:01:36;4.20;;;2.13;;
19643;SDS011;9970;-36.854;174.870;2023-11-21T06:04:10;1.70;;;1.60;;
19643;SDS011;9970;-36.854;174.870;2023-11-21T06:06:44;3.00;;;1.50;;
19643;SDS011;9970;-36.854;174.870;2023-11-21T06:09:17;2.13;;;1.20;;
19643;SDS011;9970;-36.854;174.870;2023-11-21T06:11:50;2.70;;;1.73;;
19643;SDS011;9970;-36.854;174.870;2023-11-21T06:14:23;2.37;;;1.23;;
19643;SDS011;9970;-36.854;174.870;2023-11-21T06:16:58;1.33;;;1.10;;
19643;SDS011;9970;-36.854;174.870;2023-11-21T06:19:32;3.27;;;1.50;;
19643;SDS011;9970;-36.854;174.870;2023-11-21T06:22:04;5.97;;;1.20;;
19643;SDS011;9970;-36.854;174.870;2023-11-21T06:24:37;3.07;;;1.47;;
19643;SDS011;9970;-36.854;174.870;2023-11-21T06:27:12;8.37;;;1.30;;
19643;SDS011;9970;-36.854;174.870;2023-11-21T06:29:45;1.50;;;1.40;;
19643;SDS011;9970;-36.854;174.870;2023-11-21T06:32:18;1.50;;;1.37;;
19643;SDS011;9970;-36.854;174.870;2023-11-21T06:34:56;3.33;;;1.57;;
19643;SDS011;9970;-36.854;174.870;2023-11-21T06:37:32;2.40;;;1.50;;
19643;SDS011;9970;-36.854;174.870;2023-11-21T06:40:06;2.50;;;1.60;;
19643;SDS011;9970;-36.854;174.870;2023-11-21T06:42:39;1.67;;;1.23;;
19643;SDS011;9970;-36.854;174.870;2023-11-21T06:45:14;5.33;;;1.40;;
19643;SDS011;9970;-36.854;174.870;2023-11-21T06:47:47;6.10;;;1.33;;
19643;SDS011;9970;-36.854;174.870;2023-11-21T06:50:20;2.97;;;1.30;;
19643;SDS011;9970;-36.854;174.870;2023-11-21T06:52:53;6.30;;;2.07;;
19643;SDS011;9970;-36.854;174.870;2023-11-21T06:55:27;4.80;;;1.60;;
19643;SDS011;9970;-36.854;174.870;2023-11-21T06:58:01;3.63;;;1.50;;
19643;SDS011;9970;-36.854;174.870;2023-11-21T07:00:34;2.20;;;1.23;;
19643;SDS011;9970;-36.854;174.870;2023-11-21T07:03:07;4.60;;;1.87;;
19643;SDS011;9970;-36.854;174.870;2023-11-21T07:05:40;1.57;;;1.30;;
19643;SDS011;9970;-36.854;174.870;2023-11-21T07:08:13;2.50;;;1.60;;
19643;SDS011;9970;-36.854;174.870;2023-11-21T07:10:46;1.33;;;1.20;;
19643;SDS011;9970;-36.854;174.870;2023-11-21T07:13:19;1.20;;;1.10;;
19643;SDS011;9970;-36.854;174.870;2023-11-21T07:15:52;8.17;;;1.50;;
19643;SDS011;9970;-36.854;174.870;2023-11-21T07:18:25;1.10;;;1.10;;
19643;SDS011;9970;-36.854;174.870;2023-11-21T07:20:58;1.67;;;1.57;;
19643;SDS011;9970;-36.854;174.870;2023-11-21T07:23:31;2.33;;;1.33;;
19643;SDS011;9970;-36.854;174.870;2023-11-21T07:26:04;2.63;;;2.30;;
19643;SDS011;9970;-36.854;174.870;2023-11-21T07:28:38;2.03;;;1.20;;
19643;SDS011;9970;-36.854;174.870;2023-11-21T07:31:11;5.80;;;1.90;;
19643;SDS011;9970;-36.854;174.870;2023-11-21T07:33:44;2.10;;;1.60;;
19643;SDS011;9970;-36.854;174.870;2023-11-21T07:36:24;6.53;;;1.80;;
19643;SDS011;9970;-36.854;174.870;2023-11-21T07:38:52;2.43;;;1.37;;
19643;SDS011;9970;-36.854;174.870;2023-11-21T07:41:25;4.70;;;2.23;;
19643;SDS011;9970;-36.854;174.870;2023-11-21T07:43:59;5.97;;;1.80;;
19643;SDS011;9970;-36.854;174.870;2023-11-21T07:46:32;2.20;;;1.70;;
19643;SDS011;9970;-36.854;174.870;2023-11-21T07:49:05;1.63;;;1.53;;
19643;SDS011;9970;-36.854;174.870;2023-11-21T07:51:38;2.80;;;1.10;;
19643;SDS011;9970;-36.854;174.870;2023-11-21T07:54:12;5.03;;;1.30;;
19643;SDS011;9970;-36.854;174.870;2023-11-21T07:56:45;4.20;;;1.27;;
19643;SDS011;9970;-36.854;174.870;2023-11-21T07:59:18;3.83;;;1.03;;
19643;SDS011;9970;-36.854;174.870;2023-11-21T08:01:51;4.40;;;1.33;;
19643;SDS011;9970;-36.854;174.870;2023-11-21T08:04:24;12.60;;;1.47;;
19643;SDS011;9970;-36.854;174.870;2023-11-21T08:06:58;3.03;;;1.60;;
19643;SDS011;9970;-36.854;174.870;2023-11-21T08:09:35;6.93;;;1.70;;
19643;SDS011;9970;-36.854;174.870;2023-11-21T08:12:08;5.33;;;1.70;;
19643;SDS011;9970;-36.854;174.870;2023-11-21T08:14:41;7.20;;;1.60;;
19643;SDS011;9970;-36.854;174.870;2023-11-21T08:17:14;3.13;;;1.43;;
19643;SDS011;9970;-36.854;174.870;2023-11-21T08:19:50;8.77;;;1.67;;
19643;SDS011;9970;-36.854;174.870;2023-11-21T08:22:23;6.90;;;1.60;;
19643;SDS011;9970;-36.854;174.870;2023-11-21T08:24:56;11.40;;;1.50;;
19643;SDS011;9970;-36.854;174.870;2023-11-21T08:27:29;4.53;;;1.30;;
19643;SDS011;9970;-36.854;174.870;2023-11-21T08:30:03;11.10;;;1.60;;
19643;SDS011;9970;-36.854;174.870;2023-11-21T08:32:37;8.33;;;1.63;;
19643;SDS011;9970;-36.854;174.870;2023-11-21T08:35:10;5.07;;;1.40;;
19643;SDS011;9970;-36.854;174.870;2023-11-21T08:37:43;6.30;;;1.87;;
19643;SDS011;9970;-36.854;174.870;2023-11-21T08:40:16;7.43;;;1.80;;
19643;SDS011;9970;-36.854;174.870;2023-11-21T08:42:50;3.10;;;1.83;;
19643;SDS011;9970;-36.854;174.870;2023-11-21T08:45:24;5.13;;;1.73;;
19643;SDS011;9970;-36.854;174.870;2023-11-21T08:47:57;16.50;;;1.90;;
19643;SDS011;9970;-36.854;174.870;2023-11-21T08:50:30;5.00;;;1.33;;
19643;SDS011;9970;-36.854;174.870;2023-11-21T08:53:03;4.33;;;1.40;;
19643;SDS011;9970;-36.854;174.870;2023-11-21T08:55:37;2.10;;;1.80;;
19643;SDS011;9970;-36.854;174.870;2023-11-21T08:58:10;6.90;;;2.10;;
19643;SDS011;9970;-36.854;174.870;2023-11-21T09:00:43;4.03;;;2.63;;
19643;SDS011;9970;-36.854;174.870;2023-11-21T09:03:16;3.50;;;2.20;;
19643;SDS011;9970;-36.854;174.870;2023-11-21T09:05:50;9.63;;;2.17;;
19643;SDS011;9970;-36.854;174.870;2023-11-21T09:08:23;1.97;;;1.67;;
19643;SDS011;9970;-36.854;174.870;2023-11-21T09:10:58;2.93;;;2.07;;
19643;SDS011;9970;-36.854;174.870;2023-11-21T09:13:32;2.50;;;1.80;;
19643;SDS011;9970;-36.854;174.870;2023-11-21T09:16:08;5.00;;;1.63;;
19643;SDS011;9970;-36.854;174.870;2023-11-21T09:18:41;1.70;;;1.50;;
19643;SDS011;9970;-36.854;174.870;2023-11-21T09:21:14;3.37;;;1.50;;
19643;SDS011;9970;-36.854;174.870;2023-11-21T09:23:47;2.53;;;1.23;;
19643;SDS011;9970;-36.854;174.870;2023-11-21T09:26:21;4.93;;;1.53;;
19643;SDS011;9970;-36.854;174.870;2023-11-21T09:28:54;1.57;;;1.47;;
19643;SDS011;9970;-36.854;174.870;2023-11-21T09:31:27;4.60;;;1.50;;
19643;SDS011;9970;-36.854;174.870;2023-11-21T09:34:01;3.80;;;1.53;;
19643;SDS011;9970;-36.854;174.870;2023-11-21T09:36:34;2.87;;;1.47;;
19643;SDS011;9970;-36.854;174.870;2023-11-21T09:39:08;1.93;;;1.23;;
19643;SDS011;9970;-36.854;174.870;2023-11-21T09:41:43;2.23;;;1.10;;
19643;SDS011;9970;-36.854;174.870;2023-11-21T09:47:09;1.53;;;1.20;;
19643;SDS011;9970;-36.854;174.870;2023-11-21T09:49:47;1.57;;;1.30;;
19643;SDS011;9970;-36.854;174.870;2023-11-21T09:52:22;7.30;;;1.30;;
19643;SDS011;9970;-36.854;174.870;2023-11-21T09:54:57;1.10;;;1.00;;
19643;SDS011;9970;-36.854;174.870;2023-11-21T09:57:32;1.27;;;1.00;;
19643;SDS011;9970;-36.854;174.870;2023-11-21T10:00:05;1.27;;;1.27;;
19643;SDS011;9970;-36.854;174.870;2023-11-21T10:02:40;1.00;;;1.00;;
19643;SDS011;9970;-36.854;174.870;2023-11-21T10:05:15;0.73;;;0.73;;
19643;SDS011;9970;-36.854;174.870;2023-11-21T10:07:48;1.00;;;1.00;;
19643;SDS011;9970;-36.854;174.870;2023-11-21T10:10:22;2.10;;;1.00;;
19643;SDS011;9970;-36.854;174.870;2023-11-21T10:12:56;4.77;;;1.03;;
19643;SDS011;9970;-36.854;174.870;2023-11-21T10:15:31;2.93;;;1.43;;
19643;SDS011;9970;-36.854;174.870;2023-11-21T10:18:06;3.40;;;1.00;;
19643;SDS011;9970;-36.854;174.870;2023-11-21T10:20:40;0.90;;;0.90;;
19643;SDS011;9970;-36.854;174.870;2023-11-21T10:23:13;4.97;;;0.90;;
19643;SDS011;9970;-36.854;174.870;2023-11-21T10:25:47;1.37;;;1.10;;
19643;SDS011;9970;-36.854;174.870;2023-11-21T10:28:22;1.70;;;0.90;;
19643;SDS011;9970;-36.854;174.870;2023-11-21T10:30:55;4.43;;;1.53;;
19643;SDS011;9970;-36.854;174.870;2023-11-21T10:33:28;1.20;;;1.10;;
19643;SDS011;9970;-36.854;174.870;2023-11-21T10:36:02;7.20;;;2.30;;
19643;SDS011;9970;-36.854;174.870;2023-11-21T10:38:41;1.07;;;1.07;;
19643;SDS011;9970;-36.854;174.870;2023-11-21T10:41:19;7.53;;;1.17;;
19643;SDS011;9970;-36.854;174.870;2023-11-21T10:43:52;20.03;;;1.57;;
19643;SDS011;9970;-36.854;174.870;2023-11-21T10:46:26;1.00;;;1.00;;
19643;SDS011;9970;-36.854;174.870;2023-11-21T10:49:00;9.93;;;1.23;;
19643;SDS011;9970;-36.854;174.870;2023-11-21T10:51:33;1.00;;;1.00;;
19643;SDS011;9970;-36.854;174.870;2023-11-21T10:54:06;13.27;;;1.50;;
19643;SDS011;9970;-36.854;174.870;2023-11-21T10:56:39;1.50;;;1.47;;
19643;SDS011;9970;-36.854;174.870;2023-11-21T10:59:13;11.33;;;1.67;;
19643;SDS011;9970;-36.854;174.870;2023-11-21T11:01:46;2.50;;;1.50;;
19643;SDS011;9970;-36.854;174.870;2023-11-21T11:04:20;10.30;;;1.63;;
19643;SDS011;9970;-36.854;174.870;2023-11-21T11:06:55;22.17;;;1.63;;
19643;SDS011;9970;-36.854;174.870;2023-11-21T11:09:29;4.83;;;1.30;;
19643;SDS011;9970;-36.854;174.870;2023-11-21T11:12:07;6.97;;;1.40;;
19643;SDS011;9970;-36.854;174.870;2023-11-21T11:14:41;10.03;;;1.47;;
19643;SDS011;9970;-36.854;174.870;2023-11-21T11:17:14;2.70;;;1.33;;
19643;SDS011;9970;-36.854;174.870;2023-11-21T11:19:49;1.23;;;1.13;;
19643;SDS011;9970;-36.854;174.870;2023-11-21T11:22:37;3.90;;;1.33;;
19643;SDS011;9970;-36.854;174.870;2023-11-21T11:28:20;3.20;;;1.30;;
19643;SDS011;9970;-36.854;174.870;2023-11-21T11:31:14;3.40;;;1.23;;
19643;SDS011;9970;-36.854;174.870;2023-11-21T11:33:51;1.70;;;1.60;;
19643;SDS011;9970;-36.854;174.870;2023-11-21T11:39:02;1.90;;;1.10;;
19643;SDS011;9970;-36.854;174.870;2023-11-21T11:41:40;1.60;;;1.03;;
19643;SDS011;9970;-36.854;174.870;2023-11-21T11:45:00;1.00;;;1.00;;
19643;SDS011;9970;-36.854;174.870;2023-11-21T11:46:52;4.40;;;1.07;;
19643;SDS011;9970;-36.854;174.870;2023-11-21T11:49:28;2.40;;;1.20;;
19643;SDS011;9970;-36.854;174.870;2023-11-21T11:55:13;2.03;;;1.40;;
19643;SDS011;9970;-36.854;174.870;2023-11-21T11:57:54;0.90;;;0.90;;
19643;SDS011;9970;-36.854;174.870;2023-11-21T12:03:04;1.53;;;1.07;;
19643;SDS011;9970;-36.854;174.870;2023-11-21T12:05:39;0.90;;;0.90;;
19643;SDS011;9970;-36.854;174.870;2023-11-21T12:08:14;1.30;;;1.00;;
19643;SDS011;9970;-36.854;174.870;2023-11-21T12:10:47;3.67;;;1.23;;
19643;SDS011;9970;-36.854;174.870;2023-11-21T12:13:22;1.07;;;1.07;;
19643;SDS011;9970;-36.854;174.870;2023-11-21T12:15:55;1.00;;;1.00;;
19643;SDS011;9970;-36.854;174.870;2023-11-21T12:18:28;0.90;;;0.90;;
19643;SDS011;9970;-36.854;174.870;2023-11-21T12:21:02;6.03;;;1.40;;
19643;SDS011;9970;-36.854;174.870;2023-11-21T12:23:35;0.97;;;0.90;;
19643;SDS011;9970;-36.854;174.870;2023-11-21T12:26:09;1.00;;;1.00;;
19643;SDS011;9970;-36.854;174.870;2023-11-21T12:28:42;3.37;;;1.53;;
19643;SDS011;9970;-36.854;174.870;2023-11-21T12:31:17;1.00;;;1.00;;
19643;SDS011;9970;-36.854;174.870;2023-11-21T12:33:50;1.77;;;0.97;;
19643;SDS011;9970;-36.854;174.870;2023-11-21T12:36:24;5.40;;;1.20;;
19643;SDS011;9970;-36.854;174.870;2023-11-21T12:38:58;3.17;;;1.10;;
19643;SDS011;9970;-36.854;174.870;2023-11-21T12:41:32;1.43;;;1.33;;
19643;SDS011;9970;-36.854;174.870;2023-11-21T12:44:09;2.00;;;1.10;;
19643;SDS011;9970;-36.854;174.870;2023-11-21T12:46:44;2.77;;;1.00;;
19643;SDS011;9970;-36.854;174.870;2023-11-21T12:49:17;1.10;;;1.10;;
19643;SDS011;9970;-36.854;174.870;2023-11-21T12:51:51;1.10;;;1.10;;
19643;SDS011;9970;-36.854;174.870;2023-11-21T12:54:24;1.27;;;1.27;;
19643;SDS011;9970;-36.854;174.870;2023-11-21T12:56:59;1.37;;;1.00;;
19643;SDS011;9970;-36.854;174.870;2023-11-21T12:59:32;1.60;;;1.47;;
19643;SDS011;9970;-36.854;174.870;2023-11-21T13:02:05;1.40;;;1.40;;
19643;SDS011;9970;-36.854;174.870;2023-11-21T13:04:39;1.27;;;1.27;;
19643;SDS011;9970;-36.854;174.870;2023-11-21T13:07:12;1.20;;;1.20;;
19643;SDS011;9970;-36.854;174.870;2023-11-21T13:09:46;1.60;;;1.50;;
19643;SDS011;9970;-36.854;174.870;2023-11-21T13:12:23;1.33;;;1.33;;
19643;SDS011;9970;-36.854;174.870;2023-11-21T13:14:57;1.30;;;1.20;;
19643;SDS011;9970;-36.854;174.870;2023-11-21T13:17:32;2.20;;;2.00;;
19643;SDS011;9970;-36.854;174.870;2023-11-21T13:20:05;1.50;;;1.50;;
19643;SDS011;9970;-36.854;174.870;2023-11-21T13:22:39;1.40;;;1.40;;
19643;SDS011;9970;-36.854;174.870;2023-11-21T13:25:13;1.47;;;1.37;;
19643;SDS011;9970;-36.854;174.870;2023-11-21T13:27:50;1.70;;;1.20;;
19643;SDS011;9970;-36.854;174.870;2023-11-21T13:30:23;2.23;;;1.77;;
19643;SDS011;9970;-36.854;174.870;2023-11-21T13:33:06;2.00;;;1.90;;
19643;SDS011;9970;-36.854;174.870;2023-11-21T13:35:40;4.73;;;1.83;;
19643;SDS011;9970;-36.854;174.870;2023-11-21T13:38:15;1.63;;;1.57;;
19643;SDS011;9970;-36.854;174.870;2023-11-21T13:40:50;1.83;;;1.73;;
19643;SDS011;9970;-36.854;174.870;2023-11-21T13:43:27;5.47;;;1.80;;
19643;SDS011;9970;-36.854;174.870;2023-11-21T13:46:01;1.47;;;1.33;;
19643;SDS011;9970;-36.854;174.870;2023-11-21T13:48:40;1.83;;;1.60;;
19643;SDS011;9970;-36.854;174.870;2023-11-21T13:51:14;2.77;;;2.00;;
19643;SDS011;9970;-36.854;174.870;2023-11-21T13:53:50;1.77;;;1.77;;
19643;SDS011;9970;-36.854;174.870;2023-11-21T13:56:24;1.87;;;1.77;;
19643;SDS011;9970;-36.854;174.870;2023-11-21T13:58:58;3.80;;;2.17;;
19643;SDS011;9970;-36.854;174.870;2023-11-21T14:01:32;2.93;;;1.97;;
19643;SDS011;9970;-36.854;174.870;2023-11-21T14:04:06;4.47;;;1.93;;
19643;SDS011;9970;-36.854;174.870;2023-11-21T14:06:50;2.50;;;2.27;;
19643;SDS011;9970;-36.854;174.870;2023-11-21T14:09:24;3.33;;;2.40;;
19643;SDS011;9970;-36.854;174.870;2023-11-21T14:11:59;2.00;;;1.77;;
19643;SDS011;9970;-36.854;174.870;2023-11-21T14:14:33;3.03;;;2.10;;
19643;SDS011;9970;-36.854;174.870;2023-11-21T14:17:06;2.40;;;2.10;;
19643;SDS011;9970;-36.854;174.870;2023-11-21T14:19:40;1.80;;;1.70;;
19643;SDS011;9970;-36.854;174.870;2023-11-21T14:22:13;1.80;;;1.80;;
19643;SDS011;9970;-36.854;174.870;2023-11-21T14:24:46;2.40;;;2.20;;
19643;SDS011;9970;-36.854;174.870;2023-11-21T14:27:21;2.13;;;2.13;;
19643;SDS011;9970;-36.854;174.870;2023-11-21T14:29:54;2.40;;;2.30;;
19643;SDS011;9970;-36.854;174.870;2023-11-21T14:32:27;2.37;;;2.27;;
19643;SDS011;9970;-36.854;174.870;2023-11-21T14:35:00;6.23;;;2.37;;
19643;SDS011;9970;-36.854;174.870;2023-11-21T14:37:33;2.40;;;2.30;;
19643;SDS011;9970;-36.854;174.870;2023-11-21T14:40:07;3.40;;;2.13;;
19643;SDS011;9970;-36.854;174.870;2023-11-21T14:42:40;2.40;;;2.30;;
19643;SDS011;9970;-36.854;174.870;2023-11-21T14:45:15;1.83;;;1.73;;
19643;SDS011;9970;-36.854;174.870;2023-11-21T14:47:49;1.80;;;1.70;;
19643;SDS011;9970;-36.854;174.870;2023-11-21T14:50:26;2.33;;;2.33;;
19643;SDS011;9970;-36.854;174.870;2023-11-21T14:53:13;2.20;;;1.80;;
19643;SDS011;9970;-36.854;174.870;2023-11-21T14:55:47;2.13;;;2.10;;
19643;SDS011;9970;-36.854;174.870;2023-11-21T14:58:26;1.90;;;1.90;;
19643;SDS011;9970;-36.854;174.870;2023-11-21T15:00:59;2.63;;;2.40;;
19643;SDS011;9970;-36.854;174.870;2023-11-21T15:03:33;5.50;;;1.80;;
19643;SDS011;9970;-36.854;174.870;2023-11-21T15:06:16;3.87;;;2.10;;
19643;SDS011;9970;-36.854;174.870;2023-11-21T15:08:55;2.20;;;2.10;;
19643;SDS011;9970;-36.854;174.870;2023-11-21T15:11:38;2.20;;;2.10;;
19643;SDS011;9970;-36.854;174.870;2023-11-21T15:14:11;2.60;;;2.40;;